Time,TemperatureF,DewpointF,PressureIn,WindDirection,WindDirectionDegrees,WindSpeedMPH,WindSpeedGustMPH,Humidity,HourlyPrecipIn,Conditions,Clouds,dailyrainin,SolarRadiationWatts/m^2,SoftwareType,DateUTC
2013-02-05 00:00:00,16.0,13.0,-100.00,ENE,67,1.0,-999.0,89,-99.99,,,-99.99,0.000000,,2013-02-05 05:00:00,
2013-02-05 00:42:00,16.0,13.0,-100.00,ENE,67,1.0,-999.0,89,-99.99,,,-99.99,0.000000,,2013-02-05 05:42:00,
2013-02-05 00:52:00,16.0,13.0,-100.00,ENE,67,1.0,-999.0,89,-99.99,,,-99.99,0.000000,,2013-02-05 05:52:00,
2013-02-05 01:00:00,13.0,10.0,-100.00,SE,135,0.0,-999.0,88,-99.99,,,-99.99,0.000000,,2013-02-05 06:00:00,
2013-02-05 01:42:00,13.0,10.0,-100.00,SE,135,0.0,-999.0,88,-99.99,,,-99.99,0.000000,,2013-02-05 06:42:00,
2013-02-05 01:52:00,13.0,10.0,-100.00,SE,135,0.0,-999.0,88,-99.99,,,-99.99,0.000000,,2013-02-05 06:52:00,
2013-02-05 02:00:00,13.0,11.0,-100.00,ESE,112,0.0,-999.0,91,-99.99,,,-99.99,0.000000,,2013-02-05 07:00:00,
2013-02-05 02:42:00,13.0,11.0,-100.00,ESE,112,0.0,-999.0,91,-99.99,,,-99.99,0.000000,,2013-02-05 07:42:00,
2013-02-05 02:52:00,13.0,11.0,-100.00,ESE,112,0.0,-999.0,91,-99.99,,,-99.99,0.000000,,2013-02-05 07:52:00,
2013-02-05 03:00:00,13.0,11.0,-100.00,ESE,112,0.0,-999.0,91,-99.99,,,-99.99,0.000000,,2013-02-05 08:00:00,
2013-02-05 03:42:00,13.0,11.0,-100.00,ESE,112,0.0,-999.0,91,-99.99,,,-99.99,0.000000,,2013-02-05 08:42:00,
2013-02-05 03:52:00,13.0,11.0,-100.00,ESE,112,0.0,-999.0,91,-99.99,,,-99.99,0.000000,,2013-02-05 08:52:00,
2013-02-05 04:00:00,13.0,11.0,-100.00,ESE,112,0.0,-999.0,90,-99.99,,,-99.99,0.000000,,2013-02-05 09:00:00,
2013-02-05 04:42:00,13.0,11.0,-100.00,ESE,112,0.0,-999.0,90,-99.99,,,-99.99,0.000000,,2013-02-05 09:42:00,
2013-02-05 04:52:00,13.0,11.0,-100.00,ESE,112,0.0,-999.0,90,-99.99,,,-99.99,0.000000,,2013-02-05 09:52:00,
2013-02-05 05:00:00,12.0,9.0,-100.00,SE,135,0.0,-999.0,89,-99.99,,,-99.99,0.000000,,2013-02-05 10:00:00,
2013-02-05 05:42:00,12.0,9.0,-100.00,SE,135,0.0,-999.0,89,-99.99,,,-99.99,0.000000,,2013-02-05 10:42:00,
2013-02-05 05:52:00,12.0,9.0,-100.00,SE,135,0.0,-999.0,89,-99.99,,,-99.99,0.000000,,2013-02-05 10:52:00,
2013-02-05 06:00:00,11.0,9.0,-100.00,ESE,112,0.0,-999.0,91,-99.99,,,-99.99,0.000000,,2013-02-05 11:00:00,
2013-02-05 06:42:00,11.0,9.0,-100.00,ESE,112,0.0,-999.0,91,-99.99,,,-99.99,0.000000,,2013-02-05 11:42:00,
2013-02-05 06:52:00,11.0,9.0,-100.00,ESE,112,0.0,-999.0,91,-99.99,,,-99.99,0.000000,,2013-02-05 11:52:00,
2013-02-05 07:00:00,11.0,8.0,-100.00,ESE,112,0.0,-999.0,90,-99.99,,,-99.99,0.000000,,2013-02-05 12:00:00,
2013-02-05 07:32:00,11.0,8.0,-100.00,ESE,112,0.0,-999.0,90,-99.99,,,-99.99,0.000000,,2013-02-05 12:32:00,
2013-02-05 07:42:00,11.0,8.0,-100.00,ESE,112,0.0,-999.0,90,-99.99,,,-99.99,0.000000,,2013-02-05 12:42:00,
2013-02-05 07:52:00,11.0,8.0,-100.00,ESE,112,0.0,-999.0,90,-99.99,,,-99.99,0.000000,,2013-02-05 12:52:00,
2013-02-05 08:00:00,13.0,11.0,-100.00,SSE,157,1.0,-999.0,90,-99.99,,,-99.99,0.000000,,2013-02-05 13:00:00,
2013-02-05 08:32:00,13.0,11.0,-100.00,SSE,157,1.0,-999.0,90,-99.99,,,-99.99,0.000000,,2013-02-05 13:32:00,
2013-02-05 08:42:00,13.0,11.0,-100.00,SSE,157,1.0,-999.0,90,-99.99,,,-99.99,0.000000,,2013-02-05 13:42:00,
2013-02-05 08:52:00,13.0,11.0,-100.00,SSE,157,1.0,-999.0,90,-99.99,,,-99.99,0.000000,,2013-02-05 13:52:00,
2013-02-05 09:00:00,17.0,14.0,-100.00,South,180,5.0,-999.0,89,-99.99,,,-99.99,12.760000,,2013-02-05 14:00:00,
2013-02-05 09:42:00,17.0,14.0,-100.00,South,180,5.0,-999.0,89,-99.99,,,-99.99,12.760000,,2013-02-05 14:42:00,
2013-02-05 09:52:00,17.0,14.0,-100.00,South,180,5.0,-999.0,89,-99.99,,,-99.99,12.760000,,2013-02-05 14:52:00,
2013-02-05 10:00:00,19.0,17.0,-100.00,South,180,6.0,-999.0,89,-99.99,,,-99.99,42.919998,,2013-02-05 15:00:00,
2013-02-05 10:42:00,19.0,17.0,-100.00,South,180,6.0,-999.0,89,-99.99,,,-99.99,42.919998,,2013-02-05 15:42:00,
2013-02-05 10:52:00,19.0,17.0,-100.00,South,180,6.0,-999.0,89,-99.99,,,-99.99,42.919998,,2013-02-05 15:52:00,
2013-02-05 11:00:00,22.0,18.0,-100.00,SSW,202,6.0,-999.0,87,-99.99,,,-99.99,75.400002,,2013-02-05 16:00:00,
2013-02-05 11:42:00,22.0,18.0,-100.00,SSW,202,6.0,-999.0,87,-99.99,,,-99.99,75.400002,,2013-02-05 16:42:00,
2013-02-05 11:52:00,22.0,18.0,-100.00,SSW,202,6.0,-999.0,87,-99.99,,,-99.99,75.400002,,2013-02-05 16:52:00,
2013-02-05 12:00:00,25.0,20.0,-100.00,SSW,202,7.0,-999.0,82,-99.99,,,-99.99,96.279999,,2013-02-05 17:00:00,
2013-02-05 12:42:00,25.0,20.0,-100.00,SSW,202,7.0,-999.0,82,-99.99,,,-99.99,96.279999,,2013-02-05 17:42:00,
2013-02-05 12:52:00,25.0,20.0,-100.00,SSW,202,7.0,-999.0,82,-99.99,,,-99.99,96.279999,,2013-02-05 17:52:00,
2013-02-05 13:00:00,28.0,21.0,-100.00,SSW,202,8.0,-999.0,74,0.01,,,-99.99,160.080002,,2013-02-05 18:00:00,
2013-02-05 13:42:00,28.0,21.0,-100.00,SSW,202,8.0,-999.0,74,0.01,,,-99.99,160.080002,,2013-02-05 18:42:00,
2013-02-05 13:52:00,28.0,21.0,-100.00,SSW,202,8.0,-999.0,74,0.01,,,-99.99,160.080002,,2013-02-05 18:52:00,
2013-02-05 14:00:00,28.0,21.0,-100.00,SSW,202,8.0,-999.0,74,-99.99,,,-99.99,84.680000,,2013-02-05 19:00:00,
2013-02-05 14:42:00,28.0,21.0,-100.00,SSW,202,8.0,-999.0,74,-99.99,,,-99.99,84.680000,,2013-02-05 19:42:00,
2013-02-05 14:52:00,28.0,21.0,-100.00,SSW,202,8.0,-999.0,74,-99.99,,,-99.99,84.680000,,2013-02-05 19:52:00,
2013-02-05 15:00:00,28.0,23.0,-100.00,SW,225,7.0,-999.0,80,-99.99,,,-99.99,48.720001,,2013-02-05 20:00:00,
2013-02-05 15:42:00,28.0,23.0,-100.00,SW,225,7.0,-999.0,80,-99.99,,,-99.99,48.720001,,2013-02-05 20:42:00,
2013-02-05 15:52:00,28.0,23.0,-100.00,SW,225,7.0,-999.0,80,-99.99,,,-99.99,48.720001,,2013-02-05 20:52:00,
2013-02-05 16:00:00,27.0,26.0,-100.00,SW,225,5.0,-999.0,93,-99.99,,,-99.99,47.560001,,2013-02-05 21:00:00,
2013-02-05 16:42:00,27.0,26.0,-100.00,SW,225,5.0,-999.0,93,-99.99,,,-99.99,47.560001,,2013-02-05 21:42:00,
2013-02-05 16:52:00,27.0,26.0,-100.00,SW,225,5.0,-999.0,93,-99.99,,,-99.99,47.560001,,2013-02-05 21:52:00,
2013-02-05 17:00:00,28.0,27.0,-100.00,West,270,6.0,-999.0,94,-99.99,,,-99.99,38.279999,,2013-02-05 22:00:00,
2013-02-05 17:42:00,28.0,27.0,-100.00,West,270,6.0,-999.0,94,-99.99,,,-99.99,38.279999,,2013-02-05 22:42:00,
2013-02-05 17:52:00,28.0,27.0,-100.00,West,270,6.0,-999.0,94,-99.99,,,-99.99,38.279999,,2013-02-05 22:52:00,
2013-02-05 18:00:00,28.0,26.0,-100.00,West,270,6.0,-999.0,92,-99.99,,,-99.99,9.280000,,2013-02-05 23:00:00,
2013-02-05 18:42:00,28.0,26.0,-100.00,West,270,6.0,-999.0,92,-99.99,,,-99.99,9.280000,,2013-02-05 23:42:00,
2013-02-05 18:53:00,28.0,26.0,-100.00,West,270,6.0,-999.0,92,-99.99,,,-99.99,9.280000,,2013-02-05 23:53:00,
2013-02-05 19:00:00,28.0,25.0,-100.00,WNW,292,6.0,-999.0,87,-99.99,,,-99.99,0.000000,,2013-02-06 00:00:00,
2013-02-05 19:42:00,28.0,25.0,-100.00,WNW,292,6.0,-999.0,87,-99.99,,,-99.99,0.000000,,2013-02-06 00:42:00,
2013-02-05 19:52:00,28.0,25.0,-100.00,WNW,292,6.0,-999.0,87,-99.99,,,-99.99,0.000000,,2013-02-06 00:52:00,
2013-02-05 20:00:00,28.0,26.0,-100.00,WNW,292,6.0,-999.0,90,-99.99,,,-99.99,0.000000,,2013-02-06 01:00:00,
2013-02-05 20:42:00,28.0,26.0,-100.00,WNW,292,6.0,-999.0,90,-99.99,,,-99.99,0.000000,,2013-02-06 01:42:00,
2013-02-05 20:53:00,28.0,26.0,-100.00,WNW,292,6.0,-999.0,90,-99.99,,,-99.99,0.000000,,2013-02-06 01:53:00,
2013-02-05 21:00:00,28.0,26.0,-100.00,NW,315,6.0,-999.0,92,-99.99,,,-99.99,0.000000,,2013-02-06 02:00:00,
2013-02-05 21:42:00,28.0,26.0,-100.00,NW,315,6.0,-999.0,92,-99.99,,,-99.99,0.000000,,2013-02-06 02:42:00,
2013-02-05 21:52:00,28.0,26.0,-100.00,NW,315,6.0,-999.0,92,-99.99,,,-99.99,0.000000,,2013-02-06 02:52:00,
2013-02-05 22:00:00,29.0,25.0,-100.00,NW,315,6.0,-999.0,85,-99.99,,,-99.99,0.000000,,2013-02-06 03:00:00,
2013-02-05 22:42:00,29.0,25.0,-100.00,NW,315,6.0,-999.0,85,-99.99,,,-99.99,0.000000,,2013-02-06 03:42:00,
2013-02-05 22:53:00,29.0,25.0,-100.00,NW,315,6.0,-999.0,85,-99.99,,,-99.99,0.000000,,2013-02-06 03:53:00,
2013-02-05 23:00:00,29.0,23.0,-100.00,NW,315,7.0,-999.0,77,-99.99,,,-99.99,0.000000,,2013-02-06 04:00:00,
2013-02-05 23:42:00,29.0,23.0,-100.00,NW,315,7.0,-999.0,77,-99.99,,,-99.99,0.000000,,2013-02-06 04:42:00,
2013-02-05 23:52:00,29.0,23.0,-100.00,NW,315,7.0,-999.0,77,-99.99,,,-99.99,0.000000,,2013-02-06 04:52:00,